Time;durP1;ratioP1;P1;durP2;ratioP2;P2;SDS_P1;SDS_P2;PMS_P1;PMS_P2;Temp;Humidity;BMP_temperature;BMP_pressure;BME280_temperature;BME280_humidity;BME280_pressure;Samples;Min_cycle;Max_cycle;Signal;HPM_P1;HPM_P2
2021/04/20 00:02:07;;;;;;;2.4;1.7;;;;;;;;;;;;;
2021/04/20 00:04:32;;;;;;;4.1;2;;;;;;;;;;;;;
2021/04/20 00:06:57;;;;;;;3.7;2.2;;;;;;;;;;;;;
2021/04/20 00:09:22;;;;;;;3.2;1.9;;;;;;;;;;;;;
2021/04/20 00:11:48;;;;;;;2.5;1.7;;;;;;;;;;;;;
2021/04/20 00:14:14;;;;;;;1.8;1.3;;;;;;;;;;;;;
2021/04/20 00:16:39;;;;;;;2.1;1.2;;;;;;;;;;;;;
2021/04/20 00:19:06;;;;;;;2.4;1.9;;;;;;;;;;;;;
2021/04/20 00:21:31;;;;;;;5;2.2;;;;;;;;;;;;;
2021/04/20 00:23:58;;;;;;;3.5;1.8;;;;;;;;;;;;;
2021/04/20 00:26:23;;;;;;;2.4;1.7;;;;;;;;;;;;;
2021/04/20 00:28:48;;;;;;;2.5;1.5;;;;;;;;;;;;;
2021/04/20 00:31:13;;;;;;;3;1.7;;;;;;;;;;;;;
2021/04/20 00:33:39;;;;;;;4;2.1;;;;;;;;;;;;;
2021/04/20 00:36:11;;;;;;;1.2;1;;;;;;;;;;;;;
2021/04/20 00:38:37;;;;;;;1.8;0.9;;;;;;;;;;;;;
2021/04/20 00:41:02;;;;;;;2.7;1.7;;;;;;;;;;;;;
2021/04/20 00:43:27;;;;;;;4;1.9;;;;;;;;;;;;;
2021/04/20 00:45:52;;;;;;;1.9;1.6;;;;;;;;;;;;;
2021/04/20 00:48:18;;;;;;;2.2;1.4;;;;;;;;;;;;;
2021/04/20 00:50:43;;;;;;;2;1.4;;;;;;;;;;;;;
2021/04/20 00:53:08;;;;;;;1.7;1.2;;;;;;;;;;;;;
2021/04/20 00:55:33;;;;;;;1.9;1.4;;;;;;;;;;;;;
2021/04/20 00:57:59;;;;;;;2.1;1.6;;;;;;;;;;;;;
2021/04/20 01:00:24;;;;;;;2.7;1.6;;;;;;;;;;;;;
2021/04/20 01:02:50;;;;;;;2.3;1.7;;;;;;;;;;;;;
2021/04/20 01:05:16;;;;;;;1.7;1.3;;;;;;;;;;;;;
2021/04/20 01:07:41;;;;;;;2.7;1.5;;;;;;;;;;;;;
2021/04/20 01:10:06;;;;;;;1.8;1.4;;;;;;;;;;;;;
2021/04/20 01:12:33;;;;;;;2.2;1.6;;;;;;;;;;;;;
2021/04/20 01:14:58;;;;;;;2.3;1.8;;;;;;;;;;;;;
2021/04/20 01:17:26;;;;;;;2.1;1.5;;;;;;;;;;;;;
2021/04/20 01:19:51;;;;;;;1.7;1.5;;;;;;;;;;;;;
2021/04/20 01:22:17;;;;;;;3.7;1.9;;;;;;;;;;;;;
2021/04/20 01:24:43;;;;;;;1.9;1.3;;;;;;;;;;;;;
2021/04/20 01:27:09;;;;;;;2.8;2;;;;;;;;;;;;;
2021/04/20 01:29:34;;;;;;;2.4;1.9;;;;;;;;;;;;;
2021/04/20 01:32:00;;;;;;;2.3;1.8;;;;;;;;;;;;;
2021/04/20 01:34:26;;;;;;;2.2;1.5;;;;;;;;;;;;;
2021/04/20 01:36:52;;;;;;;2.5;2.1;;;;;;;;;;;;;
2021/04/20 01:39:17;;;;;;;3;2.2;;;;;;;;;;;;;
2021/04/20 01:41:44;;;;;;;2.4;1.8;;;;;;;;;;;;;
2021/04/20 01:44:09;;;;;;;5.4;2.6;;;;;;;;;;;;;
2021/04/20 01:46:34;;;;;;;2.5;1.9;;;;;;;;;;;;;
2021/04/20 01:48:59;;;;;;;3;2;;;;;;;;;;;;;
2021/04/20 01:51:26;;;;;;;5;2.6;;;;;;;;;;;;;
2021/04/20 01:53:50;;;;;;;6.3;2.1;;;;;;;;;;;;;
2021/04/20 01:56:17;;;;;;;3.1;1.9;;;;;;;;;;;;;
2021/04/20 01:58:42;;;;;;;3.6;2.1;;;;;;;;;;;;;
2021/04/20 02:01:08;;;;;;;2.8;2;;;;;;;;;;;;;
2021/04/20 02:03:33;;;;;;;4.6;1.7;;;;;;;;;;;;;
2021/04/20 02:05:58;;;;;;;2.6;1.6;;;;;;;;;;;;;
2021/04/20 02:08:24;;;;;;;3;1.8;;;;;;;;;;;;;
2021/04/20 02:10:49;;;;;;;2;1.6;;;;;;;;;;;;;
2021/04/20 02:13:16;;;;;;;2.5;1.8;;;;;;;;;;;;;
2021/04/20 02:15:45;;;;;;;1.5;1.4;;;;;;;;;;;;;
2021/04/20 02:18:11;;;;;;;3.6;2.1;;;;;;;;;;;;;
2021/04/20 02:20:37;;;;;;;2.1;1.7;;;;;;;;;;;;;
2021/04/20 02:23:04;;;;;;;1.7;1.6;;;;;;;;;;;;;
2021/04/20 02:25:30;;;;;;;2.9;1.9;;;;;;;;;;;;;
2021/04/20 02:27:55;;;;;;;2.9;1.7;;;;;;;;;;;;;
2021/04/20 02:30:20;;;;;;;2.4;1.9;;;;;;;;;;;;;
2021/04/20 02:32:45;;;;;;;3.1;2.1;;;;;;;;;;;;;
2021/04/20 02:35:11;;;;;;;2.7;2.1;;;;;;;;;;;;;
2021/04/20 02:37:37;;;;;;;2.4;1.7;;;;;;;;;;;;;
2021/04/20 02:40:02;;;;;;;3.2;2;;;;;;;;;;;;;
2021/04/20 02:42:29;;;;;;;1.6;1.4;;;;;;;;;;;;;
2021/04/20 02:44:54;;;;;;;2.5;1.6;;;;;;;;;;;;;
2021/04/20 02:47:20;;;;;;;2.9;1.9;;;;;;;;;;;;;
2021/04/20 02:49:46;;;;;;;3.5;1.9;;;;;;;;;;;;;
2021/04/20 02:52:11;;;;;;;2.5;1.5;;;;;;;;;;;;;
2021/04/20 02:54:36;;;;;;;2.5;1.9;;;;;;;;;;;;;
2021/04/20 02:57:01;;;;;;;2.9;2;;;;;;;;;;;;;
2021/04/20 02:59:27;;;;;;;3.1;1.9;;;;;;;;;;;;;
2021/04/20 03:01:52;;;;;;;2.8;2;;;;;;;;;;;;;
2021/04/20 03:04:18;;;;;;;2.4;1.7;;;;;;;;;;;;;
2021/04/20 03:06:43;;;;;;;3;1.5;;;;;;;;;;;;;
2021/04/20 03:09:09;;;;;;;3.4;2.3;;;;;;;;;;;;;
2021/04/20 03:11:34;;;;;;;2;1.8;;;;;;;;;;;;;
2021/04/20 03:13:59;;;;;;;2.1;1.2;;;;;;;;;;;;;
2021/04/20 03:16:24;;;;;;;2.3;1.7;;;;;;;;;;;;;
2021/04/20 03:18:49;;;;;;;4.1;2.5;;;;;;;;;;;;;
2021/04/20 03:21:14;;;;;;;2.5;1.6;;;;;;;;;;;;;
2021/04/20 03:23:40;;;;;;;2.7;2;;;;;;;;;;;;;
2021/04/20 03:26:05;;;;;;;2.1;1.7;;;;;;;;;;;;;
2021/04/20 03:28:30;;;;;;;1.3;1.2;;;;;;;;;;;;;
2021/04/20 03:30:55;;;;;;;2.1;1.9;;;;;;;;;;;;;
2021/04/20 03:33:20;;;;;;;6.6;2;;;;;;;;;;;;;
2021/04/20 03:35:45;;;;;;;3.6;1.8;;;;;;;;;;;;;
2021/04/20 03:38:10;;;;;;;2.5;1.9;;;;;;;;;;;;;
2021/04/20 03:40:35;;;;;;;2.4;1.7;;;;;;;;;;;;;
2021/04/20 03:43:03;;;;;;;3.7;2.1;;;;;;;;;;;;;
2021/04/20 03:45:26;;;;;;;1.6;1.5;;;;;;;;;;;;;
2021/04/20 03:47:51;;;;;;;3.8;2;;;;;;;;;;;;;
2021/04/20 03:50:17;;;;;;;9.5;4.1;;;;;;;;;;;;;
2021/04/20 03:52:42;;;;;;;5;3.2;;;;;;;;;;;;;
2021/04/20 03:55:08;;;;;;;2.4;2.2;;;;;;;;;;;;;
2021/04/20 03:57:33;;;;;;;2.3;2.1;;;;;;;;;;;;;
2021/04/20 03:59:58;;;;;;;5;2.6;;;;;;;;;;;;;
2021/04/20 04:02:34;;;;;;;2.2;1.8;;;;;;;6.76;84.6123;937.3597;;;;
2021/04/20 04:04:59;;;;;;;2.7;1.9;;;;;;;6.65;84.2627;937.3328;;;;
2021/04/20 04:07:24;;;;;;;3.1;1.9;;;;;;;6.59;84.64648;937.3492;;;;
2021/04/20 04:09:49;;;;;;;3.1;2.2;;;;;;;6.5;85.09473;937.3861;;;;
2021/04/20 04:12:16;;;;;;;3.7;2.2;;;;;;;6.53;85.21289;937.3908;;;;
2021/04/20 04:14:41;;;;;;;3.5;2.5;;;;;;;6.51;85.24316;937.4093;;;;
2021/04/20 04:17:06;;;;;;;2.5;2.3;;;;;;;6.38;85.70215;937.3957;;;;
2021/04/20 04:19:31;;;;;;;2.9;2.1;;;;;;;6.48;85.88086;937.3753;;;;
2021/04/20 04:21:58;;;;;;;4.1;2.2;;;;;;;6.26;86.28809;937.3895;;;;
2021/04/20 04:24:23;;;;;;;2.9;1.9;;;;;;;6.14;86.89844;937.3588;;;;
2021/04/20 04:26:48;;;;;;;2.5;1.8;;;;;;;6.22;86.95898;937.38;;;;
2021/04/20 04:29:14;;;;;;;4.8;2.4;;;;;;;6.07;87.18945;937.4439;;;;
2021/04/20 04:31:39;;;;;;;4.1;2.6;;;;;;;6.13;87.83301;937.4603;;;;
2021/04/20 04:34:06;;;;;;;2.8;2;;;;;;;6.21;87.03613;937.3497;;;;
2021/04/20 04:36:31;;;;;;;3.6;2.3;;;;;;;6.09;86.74121;937.4974;;;;
2021/04/20 04:38:58;;;;;;;4.2;2.5;;;;;;;6.13;87.2793;937.4841;;;;
2021/04/20 04:41:23;;;;;;;3.4;2.5;;;;;;;6.29;87.13184;937.4766;;;;
2021/04/20 04:43:51;;;;;;;3.6;2.5;;;;;;;6.39;87.11816;937.4567;;;;
2021/04/20 04:46:16;;;;;;;3.4;2.5;;;;;;;6.38;86.61816;937.4579;;;;
2021/04/20 04:48:41;;;;;;;5.2;2.3;;;;;;;6.5;86.54199;937.4193;;;;
2021/04/20 04:51:07;;;;;;;5.2;2.9;;;;;;;6.56;86.10059;937.3961;;;;
2021/04/20 04:53:32;;;;;;;2.4;2.1;;;;;;;6.57;85.95508;937.4399;;;;
2021/04/20 04:55:59;;;;;;;2.5;2;;;;;;;6.43;85.65723;937.5125;;;;
2021/04/20 04:58:25;;;;;;;2.6;2.3;;;;;;;6.33;86.34766;937.4475;;;;
2021/04/20 05:00:51;;;;;;;4.2;2.7;;;;;;;6.4;86.40723;937.4419;;;;
2021/04/20 05:03:16;;;;;;;4.4;2.3;;;;;;;6.18;86.6123;937.4309;;;;
2021/04/20 05:05:42;;;;;;;4.4;2.5;;;;;;;6.21;87.33008;937.4375;;;;
2021/04/20 05:08:08;;;;;;;4.6;2.6;;;;;;;6.17;88.0459;937.4694;;;;
2021/04/20 05:10:33;;;;;;;2.6;2;;;;;;;6.17;87.45605;937.455;;;;
2021/04/20 05:13:01;;;;;;;4;2.7;;;;;;;6.21;87.12402;937.4958;;;;
2021/04/20 05:15:40;;;;;;;3.9;2.7;;;;;;;6.24;86.77051;937.4705;;;;
2021/04/20 05:18:07;;;;;;;4.9;2.4;;;;;;;6.23;87.04004;937.5272;;;;
2021/04/20 05:20:33;;;;;;;4.6;2.2;;;;;;;6.37;86.39063;937.4919;;;;
2021/04/20 05:22:58;;;;;;;5;2.6;;;;;;;6.43;86.24512;937.4817;;;;
2021/04/20 05:25:24;;;;;;;5.4;2.5;;;;;;;6.34;85.80859;937.5322;;;;
2021/04/20 05:27:49;;;;;;;5.3;3.2;;;;;;;6.35;85.96875;937.4155;;;;
2021/04/20 05:30:16;;;;;;;3.7;2.5;;;;;;;6.45;86.06543;937.4781;;;;
2021/04/20 05:32:41;;;;;;;9.6;2.5;;;;;;;6.56;85.42188;937.5417;;;;
2021/04/20 05:35:08;;;;;;;4.9;3;;;;;;;6.7;85.40527;937.5413;;;;
2021/04/20 05:37:34;;;;;;;3.6;2.5;;;;;;;6.63;84.96094;937.5619;;;;
2021/04/20 05:39:59;;;;;;;3.7;2.5;;;;;;;6.53;84.14941;937.5016;;;;
2021/04/20 05:42:24;;;;;;;3.6;2.4;;;;;;;6.47;84.41992;937.5673;;;;
2021/04/20 05:44:49;;;;;;;3.8;2.4;;;;;;;6.51;84.66406;937.5413;;;;
2021/04/20 05:47:16;;;;;;;3.1;2.2;;;;;;;6.55;84.95801;937.5051;;;;
2021/04/20 05:49:41;;;;;;;3;2.3;;;;;;;6.57;84.88086;937.4399;;;;
2021/04/20 05:52:07;;;;;;;3.8;2.5;;;;;;;6.65;84.95313;937.4594;;;;
2021/04/20 05:54:32;;;;;;;14.1;6.9;;;;;;;6.76;84.79395;937.4776;;;;
2021/04/20 05:57:00;;;;;;;4.9;3.2;;;;;;;6.6;84.57129;937.4461;;;;
2021/04/20 05:59:25;;;;;;;10.3;5.2;;;;;;;6.67;85.62598;937.509;;;;
2021/04/20 06:01:51;;;;;;;4.9;3.3;;;;;;;6.91;85.41309;937.5081;;;;
2021/04/20 06:04:16;;;;;;;5.4;3;;;;;;;6.86;83.53418;937.5363;;;;
2021/04/20 06:06:43;;;;;;;4.3;2.6;;;;;;;6.57;84.34863;937.5435;;;;
2021/04/20 06:09:08;;;;;;;3.5;2.4;;;;;;;6.82;84.74805;937.5647;;;;
2021/04/20 06:11:35;;;;;;;4.8;2.9;;;;;;;7.05;84.12598;937.509;;;;
2021/04/20 06:14:01;;;;;;;3.9;2.4;;;;;;;7.12;83.25684;937.5406;;;;
2021/04/20 06:16:27;;;;;;;4.1;2.9;;;;;;;7.13;83.25684;937.5479;;;;
2021/04/20 06:18:52;;;;;;;3.5;2.4;;;;;;;7.14;82.69531;937.5095;;;;
2021/04/20 06:21:22;;;;;;;3.3;2.6;;;;;;;7.1;83.02441;937.4816;;;;
2021/04/20 06:23:45;;;;;;;5.1;2.9;;;;;;;7.24;82.47656;937.5253;;;;
2021/04/20 06:26:10;;;;;;;4.3;2.3;;;;;;;7.3;81.70508;937.4947;;;;
2021/04/20 06:28:36;;;;;;;3.7;2.5;;;;;;;7.52;82.51758;937.5175;;;;
2021/04/20 06:31:02;;;;;;;3;2.1;;;;;;;7.61;80.98145;937.5478;;;;
2021/04/20 06:33:26;;;;;;;3.2;2.4;;;;;;;7.51;80.39551;937.5514;;;;
2021/04/20 06:35:53;;;;;;;3.8;2.5;;;;;;;7.77;81.32031;937.556;;;;
2021/04/20 06:38:18;;;;;;;3.5;2.2;;;;;;;8.23;80.09961;937.5705;;;;
2021/04/20 06:40:44;;;;;;;3.8;2.3;;;;;;;8.24;77.59082;937.5397;;;;
2021/04/20 06:43:09;;;;;;;4.3;2.3;;;;;;;8.07;77.73047;937.5421;;;;
2021/04/20 06:45:36;;;;;;;4.1;2.7;;;;;;;8;77.65039;937.5247;;;;
2021/04/20 06:48:01;;;;;;;5.2;2.8;;;;;;;7.76;78.13867;937.5826;;;;
2021/04/20 06:50:27;;;;;;;2.6;1.9;;;;;;;8.16;78.34863;937.5999;;;;
2021/04/20 06:52:52;;;;;;;6.6;2.5;;;;;;;8.37;77.875;937.6192;;;;
2021/04/20 06:55:17;;;;;;;4.3;2.6;;;;;;;8.52;75.8916;937.5695;;;;
2021/04/20 06:57:42;;;;;;;3.4;2;;;;;;;8.71;75.48145;937.6394;;;;
2021/04/20 07:00:10;;;;;;;5.6;1.6;;;;;;;8.43;74.05762;937.6133;;;;
2021/04/20 07:02:35;;;;;;;3.5;2.5;;;;;;;8.45;74.44727;937.5009;;;;
2021/04/20 07:05:00;;;;;;;3.8;2;;;;;;;8.41;73.62305;937.5916;;;;
2021/04/20 07:07:25;;;;;;;2.8;2.4;;;;;;;8.33;73.8457;937.6038;;;;
2021/04/20 07:09:50;;;;;;;2;1.8;;;;;;;8.67;75.95215;937.6063;;;;
2021/04/20 07:12:16;;;;;;;3.2;2;;;;;;;8.96;74.68359;937.579;;;;
2021/04/20 07:14:41;;;;;;;3.8;2.4;;;;;;;9.13;73.0293;937.6024;;;;
2021/04/20 07:17:08;;;;;;;2.8;1.9;;;;;;;9.51;72.41992;937.5751;;;;
2021/04/20 07:19:33;;;;;;;2;1.8;;;;;;;9.65;69.4248;937.5986;;;;
2021/04/20 07:22:01;;;;;;;4.1;2.1;;;;;;;9.72;69.97168;937.5351;;;;
2021/04/20 07:24:28;;;;;;;2.8;1.8;;;;;;;9.92;70.80273;937.52;;;;
2021/04/20 07:26:53;;;;;;;2.4;1.8;;;;;;;9.99;69.86719;937.5461;;;;
2021/04/20 07:29:18;;;;;;;3.9;2.2;;;;;;;9.98;68.46387;937.5206;;;;
2021/04/20 07:31:43;;;;;;;3.8;2.1;;;;;;;9.76;69.89844;937.5489;;;;
2021/04/20 07:34:08;;;;;;;3.1;2.1;;;;;;;9.5;70.13086;937.5544;;;;
2021/04/20 07:36:33;;;;;;;8.6;2.3;;;;;;;9.33;71.82227;937.4678;;;;
2021/04/20 07:38:58;;;;;;;3.1;2.3;;;;;;;9.44;72.34082;937.514;;;;
2021/04/20 07:41:24;;;;;;;2.8;2;;;;;;;9.45;70.29395;937.557;;;;
2021/04/20 07:43:50;;;;;;;4.6;2.4;;;;;;;9.18;71.43164;937.5323;;;;
2021/04/20 07:46:14;;;;;;;4.9;2.7;;;;;;;9.12;72.00195;937.5109;;;;
2021/04/20 07:48:40;;;;;;;4;2.2;;;;;;;9.15;71.76855;937.4779;;;;
2021/04/20 07:51:06;;;;;;;2.7;2;;;;;;;9.22;72.58887;937.4824;;;;
2021/04/20 07:53:32;;;;;;;3.4;2;;;;;;;9.25;70.5459;937.4597;;;;
2021/04/20 07:55:57;;;;;;;3.3;2;;;;;;;9.24;70.53223;937.4572;;;;
2021/04/20 07:58:22;;;;;;;2.7;2.2;;;;;;;9.47;70.77246;937.4141;;;;
2021/04/20 08:00:47;;;;;;;3;1.9;;;;;;;9.52;70.00684;937.4481;;;;
2021/04/20 08:03:12;;;;;;;3.1;1.9;;;;;;;9.35;69.59277;937.4641;;;;
2021/04/20 08:05:39;;;;;;;2.8;1.8;;;;;;;9.48;71.02734;937.4525;;;;
2021/04/20 08:08:03;;;;;;;3.4;2.2;;;;;;;9.6;70.08789;937.4062;;;;
2021/04/20 08:10:28;;;;;;;3.8;2.2;;;;;;;9.67;68.57324;937.4327;;;;
2021/04/20 08:12:53;;;;;;;2.2;1.8;;;;;;;9.73;70.33984;937.4636;;;;
2021/04/20 08:15:21;;;;;;;2.8;1.8;;;;;;;9.57;68.38672;937.4329;;;;
2021/04/20 08:17:50;;;;;;;4.1;2.1;;;;;;;9.76;69.95508;937.4902;;;;
2021/04/20 08:20:13;;;;;;;3;1.9;;;;;;;9.62;70.41211;937.4933;;;;
2021/04/20 08:22:39;;;;;;;3;1.7;;;;;;;9.34;70.77539;937.5069;;;;
2021/04/20 08:25:04;;;;;;;1.8;1.7;;;;;;;9.47;71.42285;937.4889;;;;
2021/04/20 08:27:29;;;;;;;2.2;1.9;;;;;;;9.47;71.62695;937.4984;;;;
2021/04/20 08:29:55;;;;;;;4;1.9;;;;;;;9.7;70.48047;937.3965;;;;
2021/04/20 08:32:20;;;;;;;3.3;2.1;;;;;;;9.94;69.11914;937.4017;;;;
2021/04/20 08:34:46;;;;;;;2.4;1.7;;;;;;;10.08;68.75293;937.3342;;;;
2021/04/20 08:37:10;;;;;;;3.7;1.7;;;;;;;9.95;66.74805;937.4161;;;;
2021/04/20 08:39:38;;;;;;;4.4;2.3;;;;;;;10.19;68.89551;937.5134;;;;
2021/04/20 08:42:03;;;;;;;2.7;2.1;;;;;;;10.23;67.69238;937.473;;;;
2021/04/20 08:44:29;;;;;;;3.4;1.7;;;;;;;10.15;66.99609;937.3889;;;;
2021/04/20 08:46:53;;;;;;;3.3;1.9;;;;;;;10.04;68.42773;937.4739;;;;
2021/04/20 08:49:18;;;;;;;3.4;2.3;;;;;;;10.1;67.25;937.4536;;;;
2021/04/20 08:51:43;;;;;;;2.6;1.9;;;;;;;10.16;67.04395;937.4869;;;;
2021/04/20 08:54:09;;;;;;;2.8;2.2;;;;;;;10.36;65.31543;937.4328;;;;
2021/04/20 08:56:35;;;;;;;3.1;2.2;;;;;;;10.72;64.2959;937.4068;;;;
2021/04/20 08:59:08;;;;;;;2.5;1.7;;;;;;;10.95;63.29102;937.3816;;;;
2021/04/20 09:01:33;;;;;;;3;2;;;;;;;11.24;61.19434;937.3878;;;;
2021/04/20 09:03:58;;;;;;;3.8;1.8;;;;;;;11.16;61.03418;937.3792;;;;
2021/04/20 09:06:24;;;;;;;2.3;1.7;;;;;;;11.28;60.94824;937.3792;;;;
2021/04/20 09:08:49;;;;;;;5.8;2.1;;;;;;;11.44;60.05566;937.3557;;;;
2021/04/20 09:11:16;;;;;;;2.1;1.7;;;;;;;11.71;59.62402;937.3434;;;;
2021/04/20 09:13:40;;;;;;;2.8;1.8;;;;;;;11.88;59.50977;937.3677;;;;
2021/04/20 09:16:05;;;;;;;2.2;1.6;;;;;;;12.25;60.5;937.4122;;;;
2021/04/20 09:18:31;;;;;;;3.7;2.7;;;;;;;12.11;58.56836;937.3365;;;;
2021/04/20 09:20:56;;;;;;;4.5;1.9;;;;;;;11.89;59.90039;937.3373;;;;
2021/04/20 09:23:24;;;;;;;5.4;2.2;;;;;;;12.01;59.07031;937.3456;;;;
2021/04/20 09:25:57;;;;;;;2;1.6;;;;;;;12.52;58.99023;937.3297;;;;
2021/04/20 09:28:22;;;;;;;2.4;1.8;;;;;;;12.8;56.97363;937.3411;;;;
2021/04/20 09:30:48;;;;;;;1.7;1.6;;;;;;;13.61;54.40137;937.2608;;;;
2021/04/20 09:33:14;;;;;;;2;1.7;;;;;;;14.12;51.9541;937.3728;;;;
2021/04/20 09:35:42;;;;;;;1.6;1.5;;;;;;;14.01;51.49219;937.3739;;;;
2021/04/20 09:38:06;;;;;;;3.7;1.5;;;;;;;13.63;53.21875;937.3865;;;;
2021/04/20 09:40:32;;;;;;;5.7;1.4;;;;;;;13.69;53.53711;937.4335;;;;
2021/04/20 09:42:57;;;;;;;1.6;1.3;;;;;;;13.72;53.0459;937.4294;;;;
2021/04/20 09:45:25;;;;;;;1.5;1.4;;;;;;;13.85;53.02637;937.4812;;;;
2021/04/20 09:47:49;;;;;;;3.8;1.4;;;;;;;13.81;50.94141;937.4386;;;;
2021/04/20 09:50:14;;;;;;;2.2;1.6;;;;;;;13.47;53.66016;937.4669;;;;
2021/04/20 09:52:43;;;;;;;1.4;1.3;;;;;;;13.55;54.33594;937.493;;;;
2021/04/20 09:55:10;;;;;;;2.2;1.5;;;;;;;13.7;55.26367;937.476;;;;
2021/04/20 09:57:34;;;;;;;2.1;1.8;;;;;;;13.43;56.99902;937.4653;;;;
2021/04/20 09:59:58;;;;;;;1.8;1.5;;;;;;;13.65;55.34766;937.4889;;;;
2021/04/20 10:02:32;;;;;;;2.2;1.6;;;;;;;13.65;55.69238;937.4697;;;;
2021/04/20 10:04:57;;;;;;;2.1;1.6;;;;;;;13.69;56.05566;937.4903;;;;
2021/04/20 10:07:22;;;;;;;3.7;1.5;;;;;;;13.97;54.36523;937.4317;;;;
2021/04/20 10:09:50;;;;;;;2;1.6;;;;;;;13.96;53.5;937.4575;;;;
2021/04/20 10:12:15;;;;;;;6.7;1.6;;;;;;;13.55;54.2793;937.4714;;;;
2021/04/20 10:14:41;;;;;;;3.2;2;;;;;;;13.45;56.66699;937.4085;;;;
2021/04/20 10:17:05;;;;;;;2.1;1.3;;;;;;;13.61;55.86133;937.4495;;;;
2021/04/20 10:19:30;;;;;;;4.4;1.6;;;;;;;13.9;54.35547;937.4338;;;;
2021/04/20 10:21:56;;;;;;;4.1;1.7;;;;;;;14.15;53.52441;937.3759;;;;
2021/04/20 10:24:24;;;;;;;3.4;1.8;;;;;;;14.46;52.97363;937.3436;;;;
2021/04/20 10:26:47;;;;;;;2.3;1.6;;;;;;;15.02;50.34277;937.2869;;;;
2021/04/20 10:29:12;;;;;;;2.4;1.9;;;;;;;14.78;52.05566;937.2853;;;;
2021/04/20 10:31:37;;;;;;;2.4;1.2;;;;;;;15.23;49.22461;937.2787;;;;
2021/04/20 10:34:02;;;;;;;1.3;1.2;;;;;;;15.7;47.82129;937.2665;;;;
2021/04/20 10:36:28;;;;;;;2;1.1;;;;;;;16;44.97656;937.1474;;;;
2021/04/20 10:38:53;;;;;;;1.6;1.1;;;;;;;16.17;45.64063;937.163;;;;
2021/04/20 10:41:18;;;;;;;2.3;1.3;;;;;;;16.04;45.56836;937.0413;;;;
2021/04/20 10:43:44;;;;;;;1.7;1.4;;;;;;;15.87;48.89258;937.0921;;;;
2021/04/20 10:46:11;;;;;;;9.2;1.5;;;;;;;15.94;48.22949;937.0036;;;;
2021/04/20 10:48:36;;;;;;;2.2;1.3;;;;;;;16.45;46.03906;936.9725;;;;
2021/04/20 10:51:05;;;;;;;2.4;1.6;;;;;;;16.81;46.68164;937.0259;;;;
2021/04/20 10:53:33;;;;;;;1.9;1.3;;;;;;;17.03;45.21973;937.0269;;;;
2021/04/20 10:55:58;;;;;;;4.1;1.8;;;;;;;17.37;43.65527;937.0008;;;;
2021/04/20 10:58:23;;;;;;;5;1.8;;;;;;;17.8;42.8623;936.9103;;;;
2021/04/20 11:00:48;;;;;;;2.1;1.4;;;;;;;18.11;41.18359;936.9311;;;;
2021/04/20 11:03:15;;;;;;;1.1;1;;;;;;;18.61;41.44043;936.8494;;;;
2021/04/20 11:05:40;;;;;;;1.4;1.2;;;;;;;17.24;43.37598;936.79;;;;
2021/04/20 11:08:05;;;;;;;1.9;1.3;;;;;;;16.61;43.42871;936.8203;;;;
2021/04/20 11:10:34;;;;;;;1.6;0.9;;;;;;;17.73;42.54199;936.8417;;;;
2021/04/20 11:12:59;;;;;;;2.6;1.3;;;;;;;17.97;42.24023;936.7372;;;;
2021/04/20 11:15:38;;;;;;;1.9;1.2;;;;;;;19.64;38.80957;936.6733;;;;
2021/04/20 11:18:03;;;;;;;2.6;1;;;;;;;20.77;34.40918;936.6555;;;;
2021/04/20 11:20:28;;;;;;;1.5;1.3;;;;;;;21.68;32.65234;936.6262;;;;
2021/04/20 11:23:00;;;;;;;1.4;1.1;;;;;;;21.99;29.89746;936.5744;;;;
2021/04/20 11:25:34;;;;;;;1.1;0.8;;;;;;;20.74;34.18457;936.5585;;;;
2021/04/20 11:27:59;;;;;;;1.7;1.2;;;;;;;19.52;34.60254;936.5235;;;;
2021/04/20 11:30:24;;;;;;;0.8;0.5;;;;;;;19.71;31.29395;936.4791;;;;
2021/04/20 11:32:50;;;;;;;0.9;0.9;;;;;;;20.66;30.59082;936.4446;;;;
2021/04/20 11:35:15;;;;;;;1.9;1;;;;;;;21.78;29.35547;936.3251;;;;
2021/04/20 11:37:41;;;;;;;1.1;1;;;;;;;20.51;29.93848;936.4208;;;;
2021/04/20 11:40:06;;;;;;;2;1;;;;;;;20.86;31.65625;936.373;;;;
2021/04/20 11:42:31;;;;;;;0.9;0.6;;;;;;;22.43;29.85645;936.2709;;;;
2021/04/20 11:44:56;;;;;;;1.9;0.9;;;;;;;23.07;29.27734;936.2597;;;;
2021/04/20 11:47:23;;;;;;;0.8;0.8;;;;;;;22.8;29.74121;936.296;;;;
2021/04/20 11:49:48;;;;;;;1.8;1.1;;;;;;;22.1;31.06543;936.301;;;;
2021/04/20 11:52:13;;;;;;;2.2;1.3;;;;;;;20.43;33.79883;936.2413;;;;
2021/04/20 11:54:40;;;;;;;2.6;1.5;;;;;;;19.39;36.18945;936.252;;;;
2021/04/20 11:57:05;;;;;;;2.4;1.3;;;;;;;18.55;37.42285;936.2564;;;;
2021/04/20 11:59:31;;;;;;;1.4;1.1;;;;;;;18.35;38.01074;936.2754;;;;
2021/04/20 12:01:56;;;;;;;2.1;1.2;;;;;;;17.52;39.98047;936.2576;;;;
2021/04/20 12:04:24;;;;;;;3.4;1.5;;;;;;;16.96;41.98047;936.3117;;;;
2021/04/20 12:06:49;;;;;;;2.5;1.2;;;;;;;16.15;43.5332;936.2853;;;;
2021/04/20 12:09:17;;;;;;;1.2;1.1;;;;;;;15.95;45.67578;936.2478;;;;
2021/04/20 12:11:43;;;;;;;3.2;1.2;;;;;;;15.84;45.49023;936.2342;;;;
2021/04/20 12:14:08;;;;;;;1;0.9;;;;;;;15.57;45.34668;936.2025;;;;
2021/04/20 12:16:33;;;;;;;2.5;0.7;;;;;;;15.6;45.03809;936.2416;;;;
2021/04/20 12:19:01;;;;;;;2.2;1.1;;;;;;;15.86;44.69531;936.2033;;;;
2021/04/20 12:21:26;;;;;;;2.5;1;;;;;;;15.66;45.49414;936.1898;;;;
2021/04/20 12:23:51;;;;;;;1.2;1.1;;;;;;;15.64;44.86914;936.1627;;;;
2021/04/20 12:26:16;;;;;;;2;1;;;;;;;15.92;43.78906;936.1703;;;;
2021/04/20 12:28:41;;;;;;;1.1;1;;;;;;;15.92;43.00195;936.0974;;;;
2021/04/20 12:31:06;;;;;;;1.1;1;;;;;;;16.04;41.9043;936.1014;;;;
2021/04/20 12:33:31;;;;;;;1.9;1.4;;;;;;;16.45;41.56055;936.0972;;;;
2021/04/20 12:35:57;;;;;;;0.9;0.9;;;;;;;16.49;42.36426;936.0997;;;;
2021/04/20 12:38:22;;;;;;;0.8;0.6;;;;;;;16.37;44.27246;936.082;;;;
2021/04/20 12:40:48;;;;;;;2.3;1;;;;;;;16.61;42.19043;936.0969;;;;
2021/04/20 12:43:14;;;;;;;2;1.4;;;;;;;16.47;43.34473;936.0446;;;;
2021/04/20 12:45:39;;;;;;;1.9;1.3;;;;;;;16.56;43.65527;936.0374;;;;
2021/04/20 12:48:04;;;;;;;1;0.8;;;;;;;16.3;42.0332;935.9811;;;;
2021/04/20 12:50:29;;;;;;;2.3;1.1;;;;;;;16.37;42.1084;936.0162;;;;
2021/04/20 12:52:55;;;;;;;0.7;0.7;;;;;;;16.57;41.88477;936.0027;;;;
2021/04/20 12:55:20;;;;;;;1.1;0.9;;;;;;;16.85;40.83496;935.9592;;;;
2021/04/20 12:57:45;;;;;;;0.8;0.8;;;;;;;16.45;41.09766;935.9927;;;;
2021/04/20 13:00:12;;;;;;;1.8;1;;;;;;;16.61;40.05859;935.8501;;;;
2021/04/20 13:02:37;;;;;;;0.9;0.8;;;;;;;16.8;40.12305;935.9389;;;;
2021/04/20 13:05:02;;;;;;;0.9;0.7;;;;;;;17.13;39.52832;935.8898;;;;
2021/04/20 13:07:27;;;;;;;0.7;0.5;;;;;;;17.26;40.1543;935.8546;;;;
2021/04/20 13:09:55;;;;;;;0.9;0.5;;;;;;;17.12;38.61133;935.8143;;;;
2021/04/20 13:12:21;;;;;;;0.6;0.6;;;;;;;17.58;36.7832;935.8376;;;;
2021/04/20 13:14:46;;;;;;;1;0.8;;;;;;;17.57;38.5918;935.8629;;;;
2021/04/20 13:17:11;;;;;;;0.7;0.6;;;;;;;17.18;36.63379;935.7802;;;;
2021/04/20 13:19:36;;;;;;;0.7;0.6;;;;;;;16.96;39.02539;935.7776;;;;
2021/04/20 13:22:03;;;;;;;1;0.7;;;;;;;17.27;40.88477;935.864;;;;
2021/04/20 13:24:27;;;;;;;1.6;0.9;;;;;;;17.09;37.69336;935.8117;;;;
2021/04/20 13:26:52;;;;;;;1.4;1;;;;;;;17.16;37.38477;935.8064;;;;
2021/04/20 13:29:19;;;;;;;0.9;0.5;;;;;;;16.75;39.73633;935.8215;;;;
2021/04/20 13:31:44;;;;;;;1.2;0.9;;;;;;;17.03;40.14355;935.8258;;;;
2021/04/20 13:39:02;;;;;;;1.6;0.8;;;;;;;17.39;42.43848;935.6394;;;;
2021/04/20 13:41:27;;;;;;;1.8;1;;;;;;;16.84;41.18164;935.7205;;;;
2021/04/20 19:07:08;;;;;;;1.1;1;;;;;;;10.64;60.21973;936.4922;;;;
2021/04/20 19:09:33;;;;;;;1.2;1;;;;;;;10.66;60.17676;936.4548;;;;
2021/04/20 19:11:58;;;;;;;1.4;1.3;;;;;;;10.69;60.00879;936.5314;;;;
2021/04/20 19:14:27;;;;;;;1.2;1.1;;;;;;;10.62;59.94336;936.5995;;;;
2021/04/20 19:16:49;;;;;;;1.5;1.4;;;;;;;10.49;60.43848;936.5729;;;;
2021/04/20 19:19:14;;;;;;;2.2;1.8;;;;;;;10.39;60.9707;936.618;;;;
2021/04/20 19:21:41;;;;;;;2.2;1.6;;;;;;;10.19;61.21875;936.5753;;;;
2021/04/20 19:24:07;;;;;;;1.9;1.2;;;;;;;10.05;61.84766;936.5814;;;;
2021/04/20 19:26:32;;;;;;;21.4;1.9;;;;;;;10.03;61.9248;936.6583;;;;
2021/04/20 19:28:58;;;;;;;1.8;1.3;;;;;;;10;62.11426;936.6951;;;;
2021/04/20 19:31:23;;;;;;;1.9;1.2;;;;;;;10;62.20605;936.6299;;;;
2021/04/20 19:33:48;;;;;;;2.3;1.2;;;;;;;9.85;62.61719;936.7573;;;;
2021/04/20 19:36:14;;;;;;;1.1;1;;;;;;;9.78;63.15527;936.731;;;;
2021/04/20 19:38:39;;;;;;;1;0.8;;;;;;;9.77;62.98145;936.8271;;;;
2021/04/20 19:41:05;;;;;;;1.6;0.9;;;;;;;9.57;63.61328;936.8056;;;;
2021/04/20 19:43:30;;;;;;;1.1;0.8;;;;;;;9.52;63.87891;936.7877;;;;
2021/04/20 19:45:57;;;;;;;0.8;0.8;;;;;;;9.39;64.28125;936.7065;;;;
2021/04/20 19:48:21;;;;;;;1;0.5;;;;;;;9.19;64.82031;936.7436;;;;
2021/04/20 19:50:46;;;;;;;4.4;1.3;;;;;;;9.08;65.35059;936.8153;;;;
2021/04/20 19:53:11;;;;;;;0.8;0.8;;;;;;;9.25;64.86523;936.8066;;;;
2021/04/20 19:55:39;;;;;;;0.9;0.7;;;;;;;9.28;64.57324;936.8348;;;;
2021/04/20 19:58:05;;;;;;;1.1;1;;;;;;;9.33;64.50098;936.8178;;;;
2021/04/20 20:00:30;;;;;;;0.8;0.6;;;;;;;9.26;64.61523;936.7464;;;;
2021/04/20 20:02:55;;;;;;;1.4;1;;;;;;;9;65.42871;936.7989;;;;
2021/04/20 20:05:23;;;;;;;1;0.9;;;;;;;8.91;65.88184;936.8256;;;;
2021/04/20 20:07:50;;;;;;;0.8;0.8;;;;;;;8.79;66.33008;936.7943;;;;
2021/04/20 20:10:16;;;;;;;1.7;1;;;;;;;8.77;66.60059;936.8481;;;;
2021/04/20 20:12:40;;;;;;;1.2;1;;;;;;;8.8;66.49121;936.8635;;;;
2021/04/20 20:15:10;;;;;;;0.7;0.7;;;;;;;8.8;66.57031;936.8549;;;;
2021/04/20 20:17:34;;;;;;;0.6;0.5;;;;;;;8.67;66.75586;936.8523;;;;
2021/04/20 20:20:02;;;;;;;1.3;0.8;;;;;;;8.39;67.75684;936.8333;;;;
2021/04/20 20:22:27;;;;;;;3.5;1.7;;;;;;;8.4;67.50684;936.8056;;;;
2021/04/20 20:24:53;;;;;;;2.1;1.4;;;;;;;8.3;67.71875;936.8395;;;;
2021/04/20 20:27:18;;;;;;;1.1;0.7;;;;;;;8.26;67.91797;936.8198;;;;
2021/04/20 20:29:43;;;;;;;1.3;1.2;;;;;;;8.24;67.9375;936.8553;;;;
2021/04/20 20:32:08;;;;;;;1;0.9;;;;;;;8.36;67.70801;936.8376;;;;
2021/04/20 20:34:34;;;;;;;1.9;1;;;;;;;8.4;67.55371;936.7922;;;;
2021/04/20 20:37:00;;;;;;;1;0.9;;;;;;;8.41;67.56738;936.8137;;;;
2021/04/20 20:39:26;;;;;;;2.2;1.2;;;;;;;8.38;67.35645;936.8005;;;;
2021/04/20 20:41:51;;;;;;;2.6;1.4;;;;;;;8.32;67.06445;936.8382;;;;
2021/04/20 20:44:16;;;;;;;1.6;1;;;;;;;8.24;67.4375;936.8814;;;;
2021/04/20 20:46:42;;;;;;;0.8;0.8;;;;;;;8.26;67.47656;936.8675;;;;
2021/04/20 20:49:10;;;;;;;1.6;1.1;;;;;;;8.32;67.28027;936.8683;;;;
2021/04/20 20:51:34;;;;;;;1.1;1;;;;;;;8.28;67.27441;936.8614;;;;
2021/04/20 20:53:59;;;;;;;1;0.7;;;;;;;8.26;67.38477;936.8333;;;;
2021/04/20 20:56:26;;;;;;;1.7;1.1;;;;;;;8.23;67.39258;936.8488;;;;
2021/04/20 20:58:51;;;;;;;2;1.3;;;;;;;8.09;67.78809;936.8161;;;;
2021/04/20 21:01:16;;;;;;;2.5;1.2;;;;;;;7.88;68.5957;936.7972;;;;
2021/04/20 21:03:41;;;;;;;1.6;1.1;;;;;;;7.73;69.18457;936.7825;;;;
2021/04/20 21:06:06;;;;;;;3.6;1.2;;;;;;;7.78;69.12402;936.8405;;;;